Time;durP1;ratioP1;P1;durP2;ratioP2;P2;SDS_P1;SDS_P2;PMS_P1;PMS_P2;Temp;Humidity;BMP_temperature;BMP_pressure;BME280_temperature;BME280_humidity;BME280_pressure;Samples;Min_cycle;Max_cycle;Signal;HPM_P1;HPM_P2
2023/12/03 00:01:47;;;;;;;13.05;4.47;;;;;;;15.07;50.24;95734.78;5080978;28;20111;-26
2023/12/03 00:04:13;;;;;;;12.32;3.75;;;;;;;14.95;50.95;95717.44;5079103;28;20020;-26
2023/12/03 00:06:38;;;;;;;18.05;3.42;;;;;;;14.99;50.56;95711.78;5086268;28;20027;-26
2023/12/03 00:09:04;;;;;;;23.63;3.70;;;;;;;14.96;50.16;95724.41;5084109;28;20028;-26
2023/12/03 00:11:29;;;;;;;18.55;3.03;;;;;;;14.79;50.67;95725.34;5080084;28;20477;-26
2023/12/03 00:13:55;;;;;;;14.02;3.45;;;;;;;14.78;50.75;95729.31;5078341;28;20130;-27
2023/12/03 00:16:21;;;;;;;15.07;2.95;;;;;;;14.86;50.90;95724.97;5091026;28;20172;-26
2023/12/03 00:18:46;;;;;;;17.58;3.80;;;;;;;14.85;50.58;95728.91;5082611;28;20615;-26
2023/12/03 00:21:12;;;;;;;19.33;3.30;;;;;;;14.92;50.43;95737.50;5076485;28;20073;-26
2023/12/03 00:23:37;;;;;;;11.77;3.05;;;;;;;14.83;50.74;95736.84;5081862;28;20020;-26
2023/12/03 00:26:03;;;;;;;12.75;3.00;;;;;;;14.99;50.48;95739.09;5089899;28;20032;-26
2023/12/03 00:28:28;;;;;;;11.40;3.17;;;;;;;14.95;50.42;95744.00;5083500;28;20102;-26
2023/12/03 00:30:54;;;;;;;13.48;2.78;;;;;;;14.79;50.85;95747.94;5075462;28;20071;-26
2023/12/03 00:33:19;;;;;;;12.27;2.53;;;;;;;14.88;50.67;95745.13;5082670;28;20029;-26
2023/12/03 00:35:44;;;;;;;16.38;2.90;;;;;;;14.71;51.32;95747.56;5083343;28;20029;-26
2023/12/03 00:38:10;;;;;;;15.32;3.13;;;;;;;15.03;50.36;95750.59;5082275;28;20032;-27
2023/12/03 00:40:37;;;;;;;17.02;2.83;;;;;;;14.87;50.57;95754.53;5084126;28;20027;-26
2023/12/03 00:43:02;;;;;;;16.23;2.75;;;;;;;14.88;50.46;95756.03;5081061;28;20034;-26
2023/12/03 00:45:28;;;;;;;9.95;3.00;;;;;;;14.87;50.75;95761.97;5082795;28;20046;-26
2023/12/03 00:47:53;;;;;;;20.73;3.83;;;;;;;14.81;50.65;95767.34;5081949;28;20041;-26
2023/12/03 00:50:18;;;;;;;11.57;3.15;;;;;;;14.72;50.88;95770.13;5081474;28;20027;-26
2023/12/03 00:52:44;;;;;;;18.90;3.70;;;;;;;14.80;50.68;95767.81;5077371;28;20029;-26
2023/12/03 00:55:09;;;;;;;18.75;3.10;;;;;;;15.06;50.19;95771.50;5085528;28;20024;-26
2023/12/03 00:57:35;;;;;;;16.25;2.78;;;;;;;15.00;49.88;95774.13;5085608;28;20022;-26
2023/12/03 01:00:00;;;;;;;17.33;2.72;;;;;;;15.01;49.64;95772.13;5076843;28;20032;-26
2023/12/03 01:02:26;;;;;;;17.15;3.40;;;;;;;15.04;49.01;95773.94;5080201;28;20488;-26
2023/12/03 01:04:52;;;;;;;16.65;2.22;;;;;;;14.75;49.47;95780.13;5082036;28;20454;-26
2023/12/03 01:07:18;;;;;;;15.40;3.22;;;;;;;14.85;49.07;95786.25;5085482;28;20019;-26
2023/12/03 01:09:43;;;;;;;15.30;2.70;;;;;;;14.84;48.93;95771.09;5085733;28;20373;-26
2023/12/03 01:12:08;;;;;;;10.15;2.58;;;;;;;14.88;49.03;95771.66;5083948;28;20484;-26
2023/12/03 01:14:34;;;;;;;8.57;2.40;;;;;;;14.92;48.64;95764.03;5084923;28;20027;-26
2023/12/03 01:16:59;;;;;;;12.93;2.53;;;;;;;14.98;48.59;95764.88;5084411;28;20430;-26
2023/12/03 01:19:25;;;;;;;18.75;2.47;;;;;;;14.68;48.47;95767.63;5077598;28;20099;-26
2023/12/03 01:21:50;;;;;;;13.60;2.45;;;;;;;14.66;48.48;95772.03;5086504;28;20039;-26
2023/12/03 01:24:16;;;;;;;14.18;2.60;;;;;;;14.90;47.91;95780.16;5082283;28;20024;-27
2023/12/03 01:26:41;;;;;;;14.85;2.53;;;;;;;14.58;48.05;95787.28;5081090;28;20028;-26
2023/12/03 01:29:06;;;;;;;16.58;4.03;;;;;;;14.65;48.09;95787.66;5082328;28;20016;-27
2023/12/03 01:31:32;;;;;;;14.13;2.47;;;;;;;14.87;47.51;95792.75;5088639;28;20377;-27
2023/12/03 01:33:57;;;;;;;11.18;2.65;;;;;;;14.81;46.94;95799.34;5086914;28;20380;-26
2023/12/03 01:36:23;;;;;;;10.93;2.40;;;;;;;14.78;47.07;95787.38;5083856;28;20028;-26
2023/12/03 01:38:48;;;;;;;10.88;2.25;;;;;;;14.76;47.21;95789.06;5074079;28;20021;-26
2023/12/03 01:41:14;;;;;;;12.48;2.05;;;;;;;14.60;47.18;95801.94;5087812;28;20233;-26
2023/12/03 01:43:51;;;;;;;13.82;3.03;;;;;;;14.51;46.97;95804.75;5081650;28;20020;-26
2023/12/03 01:46:16;;;;;;;12.70;2.45;;;;;;;14.63;46.85;95806.47;5087306;28;20031;-26
2023/12/03 01:48:46;;;;;;;12.77;2.15;;;;;;;14.55;46.93;95799.88;5075010;28;20370;-26
2023/12/03 01:51:12;;;;;;;13.75;2.78;;;;;;;14.63;46.86;95809.19;5081517;28;20481;-26
2023/12/03 01:53:42;;;;;;;10.10;2.22;;;;;;;14.62;46.85;95804.94;5056044;28;20101;-26
2023/12/03 01:56:09;;;;;;;11.15;2.08;;;;;;;14.47;46.96;95812.34;5081215;28;20067;-26
2023/12/03 01:58:35;;;;;;;9.07;1.83;;;;;;;14.42;47.05;95813.00;5080790;28;20432;-26
2023/12/03 02:01:01;;;;;;;14.00;2.15;;;;;;;14.37;47.00;95816.34;5082872;28;20027;-26
2023/12/03 02:03:27;;;;;;;15.07;2.13;;;;;;;14.35;47.00;95816.03;5084421;28;20055;-26
2023/12/03 02:06:09;;;;;;;17.45;2.75;;;;;;;14.51;46.63;95821.09;5075539;28;20040;-27
2023/12/03 02:08:35;;;;;;;12.25;2.53;;;;;;;14.60;46.51;95823.75;5084796;28;20031;-26
2023/12/03 02:11:02;;;;;;;11.65;2.30;;;;;;;14.26;47.06;95829.75;5082278;28;20028;-26
2023/12/03 02:13:31;;;;;;;13.88;2.22;;;;;;;14.32;47.21;95830.63;5080638;28;20485;-26
2023/12/03 02:15:56;;;;;;;10.80;2.28;;;;;;;14.45;47.20;95830.41;5088003;28;20024;-26
2023/12/03 02:18:22;;;;;;;8.57;2.50;;;;;;;14.46;47.32;95824.50;5080496;28;20351;-28
2023/12/03 02:20:48;;;;;;;11.77;2.08;;;;;;;14.45;47.50;95828.44;5086549;28;20473;-26
2023/12/03 02:23:14;;;;;;;11.95;2.00;;;;;;;14.54;46.97;95825.63;5082356;28;20469;-26
2023/12/03 02:25:41;;;;;;;16.00;2.85;;;;;;;14.52;46.76;95832.78;5079621;28;20025;-26
2023/12/03 02:28:06;;;;;;;16.58;2.65;;;;;;;14.31;47.26;95845.47;5080813;28;20068;-26
2023/12/03 02:30:32;;;;;;;12.05;2.58;;;;;;;14.52;46.96;95838.22;5083423;28;20431;-26
2023/12/03 02:32:57;;;;;;;14.82;2.28;;;;;;;14.53;46.85;95835.03;5084231;28;20028;-27
2023/12/03 02:35:23;;;;;;;11.32;2.22;;;;;;;14.55;46.86;95838.06;5082567;28;20082;-26
2023/12/03 02:37:48;;;;;;;13.45;2.90;;;;;;;14.56;46.59;95836.84;5083927;28;20419;-26
2023/12/03 02:40:14;;;;;;;12.75;2.33;;;;;;;14.43;46.69;95836.34;5084597;28;20020;-27
2023/12/03 02:42:39;;;;;;;14.80;2.20;;;;;;;14.60;46.52;95839.38;5080908;28;20025;-26
2023/12/03 02:45:05;;;;;;;14.98;2.35;;;;;;;14.52;46.48;95839.00;5077859;28;20027;-26
2023/12/03 02:47:31;;;;;;;14.00;3.67;;;;;;;14.57;46.26;95835.63;5082580;28;20040;-26
2023/12/03 02:49:56;;;;;;;13.13;2.08;;;;;;;14.47;46.52;95845.09;5087614;28;20039;-28
2023/12/03 02:52:21;;;;;;;16.17;2.70;;;;;;;14.54;46.36;95836.56;5086213;28;20024;-26
2023/12/03 02:54:47;;;;;;;14.10;2.10;;;;;;;14.50;46.46;95846.88;5081027;28;20057;-26
2023/12/03 02:57:12;;;;;;;16.60;2.75;;;;;;;14.42;46.34;95844.97;5077507;28;20020;-26
2023/12/03 02:59:38;;;;;;;16.25;2.63;;;;;;;14.19;47.09;95852.69;5076786;28;20025;-26
2023/12/03 03:02:03;;;;;;;16.27;2.58;;;;;;;14.57;46.83;95846.53;5082823;28;20042;-26
2023/12/03 03:04:29;;;;;;;19.45;2.47;;;;;;;14.43;46.85;95849.97;5082840;28;20497;-26
2023/12/03 03:06:55;;;;;;;12.65;2.55;;;;;;;14.33;46.75;95860.16;5074969;28;20048;-26
2023/12/03 03:09:20;;;;;;;12.25;3.38;;;;;;;14.41;46.79;95857.88;5080291;28;20051;-26
2023/12/03 03:11:46;;;;;;;15.95;2.60;;;;;;;14.46;46.53;95859.22;5079397;28;20474;-27
2023/12/03 03:14:11;;;;;;;17.65;3.33;;;;;;;14.45;46.56;95871.34;5081060;28;20119;-26
2023/12/03 03:16:37;;;;;;;12.68;2.58;;;;;;;14.42;46.21;95859.38;5077861;28;20061;-26
2023/12/03 03:19:05;;;;;;;16.65;2.25;;;;;;;14.41;46.10;95868.03;5082287;28;20107;-26
2023/12/03 03:21:30;;;;;;;11.65;2.80;;;;;;;14.60;45.59;95867.41;5076103;28;20106;-26
2023/12/03 03:23:55;;;;;;;17.52;2.28;;;;;;;14.48;45.67;95875.84;5065314;28;20449;-26
2023/12/03 03:26:21;;;;;;;16.15;2.80;;;;;;;14.50;45.39;95876.91;5075059;28;20036;-26
2023/12/03 03:28:46;;;;;;;12.55;2.60;;;;;;;14.57;45.52;95879.28;5083339;28;20028;-26
2023/12/03 03:31:12;;;;;;;12.68;2.35;;;;;;;14.48;45.47;95878.56;5082411;28;20023;-27
2023/12/03 03:33:37;;;;;;;12.75;2.15;;;;;;;14.52;45.24;95899.03;5080471;28;20025;-26
2023/12/03 03:36:03;;;;;;;20.48;3.03;;;;;;;14.52;45.41;95892.81;5085878;28;20067;-26
2023/12/03 03:38:29;;;;;;;10.43;2.20;;;;;;;14.37;45.59;95896.19;5085052;28;20368;-26
2023/12/03 03:40:54;;;;;;;16.90;2.50;;;;;;;14.45;45.75;95904.09;5086807;28;20103;-26
2023/12/03 03:43:19;;;;;;;14.68;2.50;;;;;;;14.49;45.41;95899.19;5087243;28;20020;-26
2023/12/03 03:45:45;;;;;;;17.88;3.42;;;;;;;14.49;45.27;95910.84;5086053;28;20029;-26
2023/12/03 03:48:10;;;;;;;16.30;2.53;;;;;;;14.42;45.13;95908.47;5086388;28;20044;-26
2023/12/03 03:50:36;;;;;;;12.10;2.03;;;;;;;14.38;45.35;95910.59;5085273;28;20027;-26
2023/12/03 03:53:01;;;;;;;12.82;2.92;;;;;;;14.44;45.36;95918.94;5079329;28;20022;-26
2023/12/03 03:55:27;;;;;;;14.48;3.13;;;;;;;14.41;45.25;95926.06;5087640;28;20017;-26
2023/12/03 03:57:52;;;;;;;11.95;2.50;;;;;;;14.50;45.36;95927.97;5084037;28;20461;-26
2023/12/03 04:00:18;;;;;;;18.45;2.35;;;;;;;14.42;45.30;95926.81;5083430;28;20476;-26
2023/12/03 04:02:44;;;;;;;12.25;2.55;;;;;;;14.53;45.15;95936.00;5083836;28;20556;-26
2023/12/03 04:05:09;;;;;;;8.25;2.22;;;;;;;14.59;45.09;95945.06;5083475;28;20111;-27
2023/12/03 04:07:35;;;;;;;12.88;2.08;;;;;;;14.43;45.43;95945.47;5083388;28;20098;-26
2023/12/03 04:10:00;;;;;;;12.80;2.25;;;;;;;14.51;45.30;95951.31;5083217;28;20024;-27
2023/12/03 04:12:26;;;;;;;12.40;1.75;;;;;;;14.55;45.09;95952.66;5079513;28;20024;-27
2023/12/03 04:14:51;;;;;;;16.77;2.10;;;;;;;14.48;45.14;95957.69;5079143;28;20478;-26
2023/12/03 04:17:17;;;;;;;6.22;1.65;;;;;;;14.56;45.13;95956.91;5083687;28;20385;-26
2023/12/03 04:19:43;;;;;;;14.38;2.67;;;;;;;14.65;44.50;95961.56;5083285;28;20051;-26
2023/12/03 04:22:09;;;;;;;11.95;2.45;;;;;;;14.63;44.84;95964.00;5083110;28;20048;-26
2023/12/03 04:24:34;;;;;;;10.77;2.40;;;;;;;14.56;44.95;95970.56;5086059;28;20059;-27
2023/12/03 04:27:00;;;;;;;15.88;2.78;;;;;;;14.58;44.60;95970.84;5086966;28;20024;-26
2023/12/03 04:29:25;;;;;;;12.07;2.45;;;;;;;14.57;44.99;95976.78;5076509;28;20051;-26
2023/12/03 04:31:51;;;;;;;10.15;2.33;;;;;;;14.71;44.88;95976.09;5086396;28;20417;-26
2023/12/03 04:34:16;;;;;;;13.75;2.17;;;;;;;14.49;45.01;95981.03;5078208;28;20111;-27
2023/12/03 04:36:43;;;;;;;9.77;2.22;;;;;;;14.58;44.74;95978.28;5084921;28;20077;-26
2023/12/03 04:39:09;;;;;;;13.07;2.17;;;;;;;14.72;44.68;95983.03;5079703;28;20085;-26
2023/12/03 04:41:35;;;;;;;14.50;2.90;;;;;;;14.64;44.82;95990.81;5089962;28;20510;-27
2023/12/03 04:44:01;;;;;;;15.57;2.33;;;;;;;14.67;44.46;95995.34;5087166;28;20373;-26
2023/12/03 04:46:26;;;;;;;10.73;2.45;;;;;;;14.64;44.66;95993.53;5085464;28;20016;-26
2023/12/03 04:48:52;;;;;;;9.77;2.47;;;;;;;14.86;44.45;95995.25;5084384;28;20045;-26
2023/12/03 04:51:17;;;;;;;15.85;2.72;;;;;;;14.67;44.43;95998.09;5080602;28;20434;-26
2023/12/03 04:53:42;;;;;;;12.73;2.00;;;;;;;14.55;44.42;95979.97;5082344;28;20480;-26
2023/12/03 04:56:08;;;;;;;12.23;2.03;;;;;;;14.62;44.26;95976.88;5082605;28;20427;-26
2023/12/03 04:58:34;;;;;;;9.43;1.65;;;;;;;14.68;43.94;95971.56;5082223;28;20039;-26
2023/12/03 05:01:00;;;;;;;15.23;2.00;;;;;;;14.58;44.48;95984.50;5084070;28;20024;-26
2023/12/03 05:03:25;;;;;;;10.95;2.10;;;;;;;14.56;44.27;95986.94;5080658;28;20103;-26
2023/12/03 05:05:51;;;;;;;11.10;1.80;;;;;;;14.48;44.83;95983.00;5081745;28;20115;-26
2023/12/03 05:08:17;;;;;;;12.52;2.40;;;;;;;14.58;44.45;96002.84;5082049;28;20021;-26
2023/12/03 05:10:43;;;;;;;14.77;3.50;;;;;;;14.58;43.89;96011.03;5082339;28;20025;-26
2023/12/03 05:13:08;;;;;;;10.13;2.28;;;;;;;14.63;44.38;96024.78;5081621;28;20020;-26
2023/12/03 05:15:34;;;;;;;17.80;4.70;;;;;;;14.54;44.64;96024.06;5086327;28;20039;-26
2023/12/03 05:17:59;;;;;;;12.98;2.72;;;;;;;14.42;44.56;96025.03;5084829;28;20020;-26
2023/12/03 05:20:25;;;;;;;9.90;2.22;;;;;;;14.40;44.42;96030.94;5075021;28;20040;-27
2023/12/03 05:22:51;;;;;;;14.23;2.50;;;;;;;14.52;44.17;96040.16;5081680;28;20020;-26
2023/12/03 05:25:21;;;;;;;11.70;2.20;;;;;;;14.47;44.16;96041.53;5081165;28;20550;-26
2023/12/03 05:27:46;;;;;;;8.55;2.00;;;;;;;14.53;44.08;96042.44;5081553;28;20033;-26
2023/12/03 05:30:14;;;;;;;10.40;2.60;;;;;;;14.30;44.98;96054.00;5073573;28;20107;-26
2023/12/03 05:32:40;;;;;;;12.80;2.50;;;;;;;14.14;45.31;96048.88;5081942;28;20099;-26
2023/12/03 05:35:06;;;;;;;13.27;2.67;;;;;;;14.41;44.62;96048.84;5080497;28;20024;-26
2023/12/03 05:37:31;;;;;;;10.05;2.33;;;;;;;14.43;44.60;96062.03;5083008;28;20501;-26
2023/12/03 05:39:57;;;;;;;10.60;2.00;;;;;;;14.23;45.30;96057.78;5078627;28;20020;-26
2023/12/03 05:42:22;;;;;;;13.65;2.90;;;;;;;14.15;45.43;96062.06;5084076;28;20031;-27
2023/12/03 05:44:47;;;;;;;7.03;2.38;;;;;;;14.37;44.67;96053.66;5088678;28;20377;-26
2023/12/03 05:47:13;;;;;;;12.35;2.47;;;;;;;14.39;44.42;96051.22;5073862;28;20017;-27
2023/12/03 05:49:39;;;;;;;13.02;2.40;;;;;;;14.44;44.37;96061.56;5082040;28;20335;-26
2023/12/03 05:52:05;;;;;;;12.73;2.38;;;;;;;14.49;44.26;96063.66;5091418;28;20027;-26
2023/12/03 05:54:30;;;;;;;12.65;1.80;;;;;;;14.44;44.37;96069.75;5084907;28;20023;-26
2023/12/03 05:56:56;;;;;;;14.75;2.22;;;;;;;14.42;44.46;96071.41;5081219;28;20031;-26
2023/12/03 05:59:23;;;;;;;11.40;2.67;;;;;;;14.35;44.25;96077.91;5080046;28;20158;-27
2023/12/03 06:01:49;;;;;;;14.38;2.15;;;;;;;14.41;44.16;96087.03;5080832;28;20032;-26
2023/12/03 06:04:14;;;;;;;21.23;3.00;;;;;;;14.23;44.37;96087.03;5081053;28;20404;-26
2023/12/03 06:06:40;;;;;;;11.00;2.42;;;;;;;14.26;44.32;96095.06;5081118;28;20021;-26
2023/12/03 06:09:06;;;;;;;11.75;2.42;;;;;;;14.36;44.37;96093.06;5082527;28;20024;-26
2023/12/03 06:11:32;;;;;;;7.70;1.83;;;;;;;14.19;44.87;96100.84;5085032;28;20040;-26
2023/12/03 06:13:58;;;;;;;10.30;2.53;;;;;;;14.29;44.49;96107.03;5083226;28;20120;-26
2023/12/03 06:16:24;;;;;;;17.25;2.85;;;;;;;14.22;44.68;96102.66;5080633;28;20018;-26
2023/12/03 06:18:49;;;;;;;12.00;3.03;;;;;;;14.27;44.50;96102.03;5080273;28;20024;-26
2023/12/03 06:21:15;;;;;;;16.95;2.92;;;;;;;14.22;44.68;96110.81;5088311;28;20465;-26
2023/12/03 06:23:40;;;;;;;11.90;3.20;;;;;;;14.32;44.55;96119.78;5080432;28;20070;-26
2023/12/03 06:26:06;;;;;;;16.27;3.22;;;;;;;14.30;44.75;96127.66;5062958;28;20054;-27
2023/12/03 06:28:32;;;;;;;13.75;3.13;;;;;;;14.22;44.69;96131.88;5080735;28;20030;-26
2023/12/03 06:30:57;;;;;;;10.35;3.13;;;;;;;14.13;44.90;96145.53;5086312;28;20095;-26
2023/12/03 06:33:23;;;;;;;15.27;3.28;;;;;;;14.12;44.79;96144.03;5064276;28;20148;-26
2023/12/03 06:35:49;;;;;;;12.35;3.20;;;;;;;14.17;44.90;96146.16;5083714;28;20537;-26
2023/12/03 06:38:15;;;;;;;18.70;3.65;;;;;;;14.09;45.30;96155.88;5076992;28;20033;-26
2023/12/03 06:40:40;;;;;;;13.63;2.85;;;;;;;14.22;45.14;96164.63;5080528;28;20020;-26
2023/12/03 06:43:06;;;;;;;16.95;3.35;;;;;;;13.95;45.51;96163.44;5080399;28;20362;-26
2023/12/03 06:45:32;;;;;;;17.17;3.28;;;;;;;14.02;45.66;96165.84;5080220;28;20025;-26
2023/12/03 06:47:57;;;;;;;12.02;2.60;;;;;;;14.04;45.66;96173.59;5072423;28;20079;-26
2023/12/03 06:50:22;;;;;;;12.32;2.35;;;;;;;13.99;45.64;96177.66;5079302;28;20074;-26
2023/12/03 06:52:48;;;;;;;12.45;3.05;;;;;;;14.27;45.07;96183.09;5075352;28;20017;-26
2023/12/03 06:55:13;;;;;;;12.70;3.15;;;;;;;14.11;45.57;96181.44;5083743;28;20031;-26
2023/12/03 06:57:39;;;;;;;13.32;2.70;;;;;;;14.07;45.73;96180.84;5058073;28;20024;-26
2023/12/03 07:00:06;;;;;;;22.40;3.00;;;;;;;14.05;45.47;96204.34;5083112;28;20020;-26
2023/12/03 07:02:32;;;;;;;11.73;2.83;;;;;;;14.15;45.43;96201.16;5083507;28;20028;-26
2023/12/03 07:04:57;;;;;;;19.55;3.58;;;;;;;14.07;45.36;96196.47;5075121;28;20020;-26
2023/12/03 07:07:23;;;;;;;17.23;2.95;;;;;;;14.24;45.20;96205.84;5079762;28;20466;-26
2023/12/03 07:09:49;;;;;;;12.57;2.67;;;;;;;14.14;45.39;96201.59;5080001;28;20105;-26
2023/12/03 07:12:15;;;;;;;10.25;2.47;;;;;;;14.34;44.94;96208.09;5086178;28;20150;-26
2023/12/03 07:14:40;;;;;;;14.52;2.80;;;;;;;14.29;44.94;96216.16;5087285;28;20023;-26
2023/12/03 07:17:06;;;;;;;11.50;2.40;;;;;;;14.32;45.02;96223.44;5086360;28;20108;-26
2023/12/03 07:19:32;;;;;;;11.70;2.47;;;;;;;14.42;44.82;96221.47;5087262;28;20385;-26
2023/12/03 07:21:57;;;;;;;14.90;2.17;;;;;;;14.48;44.87;96225.09;5087634;28;20027;-26
2023/12/03 07:24:23;;;;;;;17.00;2.90;;;;;;;14.39;45.05;96231.28;5086366;28;20214;-26
2023/12/03 07:26:48;;;;;;;15.57;2.78;;;;;;;14.44;44.82;96233.44;5082636;28;20029;-26
2023/12/03 07:29:14;;;;;;;14.82;2.22;;;;;;;14.35;44.94;96236.13;5083953;28;20440;-26
2023/12/03 07:31:39;;;;;;;15.13;2.97;;;;;;;14.42;45.05;96243.31;5079437;28;20024;-27
2023/12/03 07:34:05;;;;;;;16.80;2.47;;;;;;;14.34;45.23;96248.28;5080683;28;20461;-26
2023/12/03 07:36:30;;;;;;;12.48;3.05;;;;;;;14.30;45.33;96262.06;5090976;28;20354;-26
2023/12/03 07:38:56;;;;;;;18.50;2.90;;;;;;;14.44;44.87;96262.72;5088184;28;20022;-27
2023/12/03 07:41:21;;;;;;;14.70;3.40;;;;;;;14.40;45.25;96268.31;5086636;28;20079;-26
2023/12/03 07:43:47;;;;;;;17.30;3.00;;;;;;;14.63;44.77;96258.75;5076676;28;20099;-26
2023/12/03 07:46:21;;;;;;;12.95;2.95;;;;;;;14.60;45.09;96271.31;5089455;28;20115;-26
2023/12/03 07:48:46;;;;;;;10.18;2.38;;;;;;;14.55;45.21;96284.84;5085008;28;20048;-26
2023/12/03 07:51:12;;;;;;;12.93;2.58;;;;;;;14.55;45.32;96284.84;5086701;28;20024;-26
2023/12/03 07:53:39;;;;;;;12.50;2.15;;;;;;;14.50;45.59;96288.16;5078840;28;20487;-26
2023/12/03 07:56:05;;;;;;;8.88;2.10;;;;;;;14.51;45.07;96295.88;5083950;28;20482;-26
2023/12/03 07:58:30;;;;;;;8.45;2.05;;;;;;;14.68;44.92;96302.56;5082226;28;20035;-26
2023/12/03 08:00:58;;;;;;;9.93;2.15;;;;;;;14.53;45.25;96304.38;5084356;28;20446;-26
2023/12/03 08:03:23;;;;;;;10.55;1.88;;;;;;;14.58;45.12;96308.50;5083362;28;20078;-26
2023/12/03 08:05:49;;;;;;;7.88;2.08;;;;;;;14.50;44.93;96315.44;5083342;28;20051;-26
2023/12/03 08:08:14;;;;;;;11.80;1.98;;;;;;;14.62;45.14;96307.09;5085861;28;20032;-26
2023/12/03 08:10:39;;;;;;;9.57;1.90;;;;;;;14.81;44.62;96315.31;5080304;28;20020;-26
2023/12/03 08:13:05;;;;;;;10.65;2.60;;;;;;;14.83;44.58;96321.81;5084375;28;20028;-26
2023/12/03 08:15:30;;;;;;;13.27;3.05;;;;;;;14.70;44.56;96318.50;5082567;28;20082;-26
2023/12/03 08:17:56;;;;;;;13.40;2.85;;;;;;;14.70;44.77;96321.97;5083209;28;20020;-27
2023/12/03 08:20:21;;;;;;;22.83;10.55;;;;;;;14.58;44.99;96324.88;5082781;28;20031;-26
2023/12/03 08:22:47;;;;;;;18.65;9.25;;;;;;;14.74;44.75;96330.00;5082390;28;20461;-26
2023/12/03 08:25:12;;;;;;;17.10;7.90;;;;;;;14.59;45.20;96332.56;5083170;28;20385;-26
2023/12/03 08:27:38;;;;;;;16.40;7.20;;;;;;;14.76;44.75;96335.00;5083153;28;20028;-26
2023/12/03 08:30:04;;;;;;;12.25;6.55;;;;;;;14.79;44.76;96342.28;5083315;28;20073;-26
2023/12/03 08:32:29;;;;;;;12.68;6.38;;;;;;;14.83;44.79;96338.22;5083946;28;20031;-26
2023/12/03 08:34:54;;;;;;;18.50;5.20;;;;;;;14.99;44.58;96340.59;5088992;28;20032;-26
2023/12/03 08:37:20;;;;;;;19.25;4.68;;;;;;;14.78;45.07;96343.50;5082808;28;20027;-26
2023/12/03 08:39:45;;;;;;;13.77;3.67;;;;;;;14.88;44.90;96345.00;5077855;28;20032;-26
2023/12/03 08:42:11;;;;;;;14.35;3.60;;;;;;;14.85;44.97;96351.38;5080009;28;20527;-26
2023/12/03 08:44:36;;;;;;;13.13;3.78;;;;;;;14.91;44.72;96355.03;5090285;28;20102;-26
2023/12/03 08:47:02;;;;;;;12.48;4.05;;;;;;;14.99;44.65;96356.97;5074697;28;20020;-26
2023/12/03 08:49:28;;;;;;;14.98;4.55;;;;;;;15.14;44.69;96351.66;5082673;28;20048;-26
2023/12/03 08:51:53;;;;;;;11.50;3.97;;;;;;;15.07;44.59;96349.25;5082280;28;20028;-26
2023/12/03 08:54:19;;;;;;;14.77;4.47;;;;;;;15.96;42.91;96362.34;5088045;28;20020;-26
2023/12/03 08:56:44;;;;;;;17.98;6.18;;;;;;;20.30;34.30;96364.38;5084417;28;20028;-26
2023/12/03 08:59:10;;;;;;;15.73;7.10;;;;;;;21.60;31.22;96374.63;5064205;28;20030;-27
2023/12/03 09:01:39;;;;;;;18.52;7.55;;;;;;;22.42;29.80;96375.81;5082299;28;20351;-26
2023/12/03 09:04:04;;;;;;;18.73;7.63;;;;;;;23.49;27.88;96374.09;5082912;28;20508;-26
2023/12/03 09:06:30;;;;;;;22.45;8.90;;;;;;;24.07;26.99;96378.72;5082371;28;20017;-28
2023/12/03 09:08:56;;;;;;;14.35;5.38;;;;;;;23.96;27.09;96383.09;5081620;28;20394;-26
2023/12/03 09:11:22;;;;;;;11.23;4.68;;;;;;;24.18;27.04;96393.22;5081744;28;20020;-27
2023/12/03 09:13:48;;;;;;;13.88;4.30;;;;;;;24.60;26.49;96393.84;5081795;28;20078;-27
2023/12/03 09:16:13;;;;;;;9.23;3.88;;;;;;;25.21;25.19;96384.81;5076165;28;20023;-27
2023/12/03 09:18:38;;;;;;;13.55;3.38;;;;;;;25.07;25.55;96388.78;5085432;28;20461;-27
2023/12/03 09:21:08;;;;;;;12.40;3.97;;;;;;;25.51;24.72;96378.31;5076710;28;20485;-27
2023/12/03 09:23:34;;;;;;;10.05;2.30;;;;;;;26.53;23.53;96390.06;5082103;28;20099;-27
2023/12/03 09:26:01;;;;;;;17.83;3.30;;;;;;;26.81;23.48;96393.06;5088521;28;20051;-27
2023/12/03 09:28:26;;;;;;;9.32;3.25;;;;;;;26.45;23.69;96393.50;5074267;28;20105;-27
2023/12/03 09:30:52;;;;;;;11.63;3.05;;;;;;;27.21;22.72;96402.13;5081913;28;20424;-27
2023/12/03 09:33:17;;;;;;;11.40;2.95;;;;;;;27.22;22.66;96406.41;5081410;28;20052;-27
2023/12/03 09:35:43;;;;;;;9.90;3.35;;;;;;;24.24;26.16;96402.25;5077363;28;20024;-28
2023/12/03 09:38:08;;;;;;;11.60;3.47;;;;;;;21.01;32.12;96408.56;5084682;28;20028;-27
2023/12/03 09:40:34;;;;;;;16.58;3.58;;;;;;;19.59;34.77;96399.13;5082241;28;20016;-27
2023/12/03 09:43:04;;;;;;;10.48;3.53;;;;;;;18.99;36.09;96403.50;5081415;28;20081;-26
2023/12/03 09:45:31;;;;;;;17.23;4.05;;;;;;;18.48;36.99;96409.56;5081589;28;20024;-27
2023/12/03 09:48:01;;;;;;;17.33;4.10;;;;;;;18.15;37.77;96422.81;5081631;28;20401;-27
2023/12/03 09:50:33;;;;;;;14.68;3.70;;;;;;;17.69;38.69;96417.84;5074387;28;20047;-27
2023/12/03 09:53:02;;;;;;;12.23;4.00;;;;;;;17.38;39.49;96418.28;5084712;28;20023;-26
2023/12/03 09:55:28;;;;;;;11.73;4.05;;;;;;;17.08;40.60;96412.00;5084283;28;20016;-27
2023/12/03 09:57:57;;;;;;;12.27;3.45;;;;;;;16.71;41.30;96424.44;5075556;28;20024;-26
2023/12/03 10:00:23;;;;;;;10.60;3.00;;;;;;;16.72;41.46;96415.78;5086469;28;20051;-26
2023/12/03 10:02:52;;;;;;;11.68;3.63;;;;;;;16.57;41.92;96428.59;5073873;28;20117;-26
2023/12/03 10:05:18;;;;;;;11.13;3.00;;;;;;;16.36;42.62;96429.66;5081789;28;20462;-27
2023/12/03 10:07:49;;;;;;;11.45;3.13;;;;;;;16.22;42.62;96433.06;5081213;28;20039;-27
2023/12/03 10:10:19;;;;;;;13.02;3.22;;;;;;;16.14;43.05;96435.38;5080439;28;20114;-27
2023/12/03 10:12:47;;;;;;;11.43;3.22;;;;;;;15.99;43.25;96421.59;5081018;28;20064;-27
2023/12/03 10:15:13;;;;;;;11.18;3.45;;;;;;;15.89;43.65;96424.84;5082657;28;20093;-27
2023/12/03 10:17:39;;;;;;;15.55;2.80;;;;;;;15.95;43.80;96418.28;5084357;28;20449;-26
2023/12/03 10:20:34;;;;;;;13.23;2.67;;;;;;;15.86;44.05;96437.47;5057777;28;20234;-27
2023/12/03 10:23:02;;;;;;;7.97;2.70;;;;;;;15.93;43.96;96433.66;5057099;28;20158;-26
2023/12/03 10:25:32;;;;;;;12.73;2.90;;;;;;;15.75;44.61;96435.22;5080677;28;20013;-26
2023/12/03 10:28:08;;;;;;;10.35;2.53;;;;;;;15.78;44.36;96433.53;5080710;28;20059;-26
2023/12/03 10:30:36;;;;;;;13.25;3.03;;;;;;;15.60;44.96;96442.53;5075648;28;20056;-26
2023/12/03 10:33:04;;;;;;;11.50;2.28;;;;;;;15.54;45.29;96435.38;5077857;28;20027;-26
2023/12/03 10:35:35;;;;;;;9.68;2.90;;;;;;;15.72;44.62;96446.31;5080837;28;20024;-29
2023/12/03 10:38:01;;;;;;;10.27;2.92;;;;;;;15.62;45.11;96431.13;5080768;28;20511;-27
2023/12/03 10:40:33;;;;;;;8.75;2.47;;;;;;;15.68;44.88;96430.06;5080159;28;20493;-27
2023/12/03 10:43:03;;;;;;;9.07;2.25;;;;;;;15.59;45.59;96429.31;5080662;28;20031;-27
2023/12/03 10:45:30;;;;;;;12.43;5.10;;;;;;;15.66;45.46;96431.75;5079596;28;20027;-26
2023/12/03 10:48:00;;;;;;;9.70;4.88;;;;;;;15.60;45.51;96431.59;5075724;28;20036;-27
2023/12/03 10:50:28;;;;;;;13.65;4.40;;;;;;;15.54;45.58;96429.94;5083908;28;20020;-26
2023/12/03 10:53:00;;;;;;;11.63;3.28;;;;;;;15.63;45.47;96427.19;5087547;28;20115;-26
2023/12/03 10:55:27;;;;;;;10.55;2.85;;;;;;;15.59;45.42;96423.84;5080474;28;20021;-26
2023/12/03 10:58:03;;;;;;;10.10;3.08;;;;;;;15.56;45.70;96424.78;5087517;28;20123;-26
2023/12/03 11:00:43;;;;;;;13.40;3.30;;;;;;;15.55;45.47;96434.97;5080031;28;20020;-26
2023/12/03 11:03:30;;;;;;;11.25;2.88;;;;;;;15.43;45.81;96435.88;5087533;28;20020;-26
2023/12/03 11:06:01;;;;;;;8.80;2.97;;;;;;;15.56;45.82;96436.47;5081284;28;20028;-27
2023/12/03 11:08:30;;;;;;;8.43;3.15;;;;;;;15.42;46.37;96437.84;5079207;28;20009;-27
2023/12/03 11:10:56;;;;;;;11.30;3.50;;;;;;;15.56;45.30;96433.75;5080158;28;20790;-27
2023/12/03 11:13:27;;;;;;;8.98;3.00;;;;;;;15.65;45.23;96433.72;5079951;28;20012;-27
2023/12/03 11:15:54;;;;;;;7.65;2.55;;;;;;;15.58;45.79;96433.28;5055474;28;20023;-26
2023/12/03 11:18:23;;;;;;;13.73;2.78;;;;;;;15.52;45.66;96441.31;5079917;28;20070;-26
2023/12/03 11:20:58;;;;;;;9.82;2.67;;;;;;;15.46;45.48;96438.41;5079735;28;20351;-27
2023/12/03 11:23:43;;;;;;;7.45;2.50;;;;;;;15.42;45.59;96437.84;5080159;28;20135;-26